createdAt,value
2017-09-28T00:00:11.000Z,12.59
2017-09-28T00:02:38.470Z,12.33
2017-09-28T00:05:05.957Z,12.30
2017-09-28T00:07:33.424Z,12.42
2017-09-28T00:10:00.908Z,12.35
2017-09-28T00:12:28.424Z,12.41
2017-09-28T00:14:55.917Z,12.38
2017-09-28T00:17:23.377Z,12.47
2017-09-28T00:19:50.877Z,12.51
2017-09-28T00:22:18.352Z,12.34
2017-09-28T00:24:45.820Z,12.30
2017-09-28T00:27:13.299Z,12.43
2017-09-28T00:29:40.759Z,12.39
2017-09-28T00:32:08.260Z,12.36
2017-09-28T00:34:35.732Z,12.10
2017-09-28T00:37:03.246Z,12.25
2017-09-28T00:39:30.713Z,12.33
2017-09-28T00:41:58.219Z,12.23
2017-09-28T00:44:25.685Z,12.25
2017-09-28T00:46:53.138Z,12.28
2017-09-28T00:49:20.611Z,12.39
2017-09-28T00:51:48.064Z,12.37
2017-09-28T00:54:15.653Z,12.15
2017-09-28T00:56:43.108Z,12.10
2017-09-28T00:59:10.588Z,12.13
2017-09-28T01:01:38.025Z,12.13
2017-09-28T01:04:05.485Z,12.14
2017-09-28T01:06:32.933Z,12.20
2017-09-28T01:09:00.370Z,11.97
2017-09-28T01:11:27.846Z,12.05
2017-09-28T01:13:55.286Z,12.16
2017-09-28T01:16:22.750Z,12.24
2017-09-28T01:18:50.214Z,12.30
2017-09-28T01:21:17.676Z,12.26
2017-09-28T01:23:45.124Z,12.06
2017-09-28T01:26:12.631Z,12.25
2017-09-28T01:28:40.084Z,12.25
2017-09-28T01:31:07.525Z,12.21
2017-09-28T01:33:35.090Z,12.13
2017-09-28T01:36:02.538Z,12.12
2017-09-28T01:38:30.002Z,12.09
2017-09-28T01:40:57.457Z,12.12
2017-09-28T01:43:24.922Z,12.10
2017-09-28T01:45:52.374Z,12.13
2017-09-28T01:48:19.833Z,12.09
2017-09-28T01:50:47.295Z,12.07
2017-09-28T01:53:14.766Z,12.13
2017-09-28T01:55:42.255Z,12.11
2017-09-28T01:58:09.733Z,12.18
2017-09-28T02:00:37.172Z,12.08
2017-09-28T02:03:04.651Z,11.93
2017-09-28T02:05:32.094Z,12.04
2017-09-28T02:07:59.569Z,12.13
2017-09-28T02:10:27.042Z,12.03
2017-09-28T02:12:54.515Z,11.98
2017-09-28T02:15:21.957Z,12.00
2017-09-28T02:17:49.399Z,12.08
2017-09-28T02:20:16.888Z,12.07
2017-09-28T02:22:44.334Z,12.09
2017-09-28T02:25:11.797Z,12.13
2017-09-28T02:27:39.251Z,12.28
2017-09-28T02:30:06.790Z,12.20
2017-09-28T02:32:34.247Z,12.12
2017-09-28T02:35:01.738Z,12.08
2017-09-28T02:37:29.176Z,12.03
2017-09-28T02:39:56.624Z,12.09
2017-09-28T02:42:24.119Z,12.00
2017-09-28T02:44:51.558Z,12.06
2017-09-28T02:47:19.025Z,12.08
2017-09-28T02:49:46.547Z,12.01
2017-09-28T02:52:14.009Z,12.05
2017-09-28T02:54:41.448Z,12.07
2017-09-28T02:57:09.024Z,12.07
2017-09-28T02:59:36.466Z,12.06
2017-09-28T03:02:03.946Z,12.15
2017-09-28T03:04:31.393Z,12.04
2017-09-28T03:06:58.951Z,12.05
2017-09-28T03:09:26.397Z,12.04
2017-09-28T03:11:53.864Z,12.03
2017-09-28T03:14:21.429Z,12.06
2017-09-28T03:16:48.910Z,11.98
2017-09-28T03:19:16.383Z,11.94
2017-09-28T03:21:43.839Z,11.90
2017-09-28T03:24:11.321Z,12.00
2017-09-28T03:26:38.762Z,12.00
2017-09-28T03:29:06.227Z,12.05
2017-09-28T03:31:33.721Z,12.19
2017-09-28T03:34:01.181Z,12.23
2017-09-28T03:36:28.630Z,12.23
2017-09-28T03:38:56.182Z,12.29
2017-09-28T03:41:23.629Z,12.22
2017-09-28T03:43:51.106Z,12.33
2017-09-28T03:46:18.564Z,12.32
2017-09-28T03:48:46.005Z,12.28
2017-09-28T03:51:13.469Z,12.23
2017-09-28T03:53:40.914Z,12.26
2017-09-28T03:56:08.388Z,12.23
2017-09-28T03:58:35.829Z,12.28
2017-09-28T04:01:03.293Z,12.21
2017-09-28T04:03:30.765Z,12.24
2017-09-28T04:05:58.241Z,12.21
2017-09-28T04:08:25.686Z,12.12
2017-09-28T04:10:53.133Z,12.06
2017-09-28T04:13:20.607Z,11.97
2017-09-28T04:15:48.084Z,11.89
2017-09-28T04:18:15.552Z,11.99
2017-09-28T04:20:42.994Z,12.25
2017-09-28T04:23:10.506Z,12.15
2017-09-28T04:25:37.949Z,12.13
2017-09-28T04:28:05.415Z,12.17
2017-09-28T04:30:32.873Z,12.18
2017-09-28T04:33:00.343Z,12.07
2017-09-28T04:35:27.789Z,11.86
2017-09-28T04:37:55.345Z,12.03
2017-09-28T04:40:22.802Z,11.78
2017-09-28T04:42:50.362Z,11.88
2017-09-28T04:45:17.829Z,12.03
2017-09-28T04:47:45.277Z,12.16
2017-09-28T04:50:12.841Z,12.26
2017-09-28T04:52:40.393Z,12.23
2017-09-28T04:55:07.950Z,12.21
2017-09-28T04:57:35.406Z,12.17
2017-09-28T05:00:02.884Z,12.04
2017-09-28T05:02:30.341Z,12.13
2017-09-28T05:04:57.836Z,12.28
2017-09-28T05:07:25.298Z,12.29
2017-09-28T05:09:52.770Z,12.28
2017-09-28T05:12:20.227Z,12.35
2017-09-28T05:14:47.693Z,12.39
2017-09-28T05:17:15.189Z,12.27
2017-09-28T05:19:42.637Z,12.26
2017-09-28T05:22:10.138Z,12.32
2017-09-28T05:24:37.598Z,12.29
2017-09-28T05:27:05.080Z,12.41
2017-09-28T05:29:32.606Z,12.39
2017-09-28T05:32:00.082Z,12.14
2017-09-28T05:34:27.537Z,12.13
2017-09-28T05:36:55.016Z,12.19
2017-09-28T05:39:22.477Z,12.24
2017-09-28T05:41:49.930Z,12.57
2017-09-28T05:44:17.395Z,12.37
2017-09-28T05:46:44.861Z,12.33
2017-09-28T05:49:12.329Z,12.39
2017-09-28T05:51:39.778Z,12.37
2017-09-28T05:54:07.238Z,12.55
2017-09-28T05:56:34.682Z,12.63
2017-09-28T05:59:02.240Z,12.53
2017-09-28T06:01:29.692Z,12.25
2017-09-28T06:03:57.207Z,12.15
2017-09-28T06:06:24.653Z,12.36
2017-09-28T06:08:52.144Z,12.68
2017-09-28T06:11:19.599Z,12.68
2017-09-28T06:13:47.077Z,12.66
2017-09-28T06:16:14.636Z,12.72
2017-09-28T06:18:42.108Z,12.84
2017-09-28T06:21:09.662Z,12.97
2017-09-28T06:23:37.125Z,12.99
2017-09-28T06:26:04.657Z,13.01
2017-09-28T06:28:32.124Z,13.01
2017-09-28T06:30:59.573Z,13.01
2017-09-28T06:33:27.019Z,13.06
2017-09-28T06:35:54.650Z,13.11
2017-09-28T06:38:22.089Z,13.19
2017-09-28T06:40:49.563Z,13.23
2017-09-28T06:43:17.015Z,13.04
2017-09-28T06:45:44.490Z,12.69
2017-09-28T06:48:11.934Z,12.70
2017-09-28T06:50:39.447Z,12.95
2017-09-28T06:53:07.001Z,13.30
2017-09-28T06:55:34.478Z,13.27
2017-09-28T06:58:01.921Z,13.19
2017-09-28T07:00:29.401Z,13.13
2017-09-28T07:02:56.843Z,13.30
2017-09-28T07:05:24.372Z,13.43
2017-09-28T07:07:51.828Z,13.60
2017-09-28T07:10:19.492Z,13.65
2017-09-28T07:12:46.966Z,13.64
2017-09-28T07:15:14.429Z,13.62
2017-09-28T07:17:41.882Z,13.69
2017-09-28T07:20:09.363Z,13.67
2017-09-28T07:22:36.813Z,13.74
2017-09-28T07:25:04.333Z,13.75
2017-09-28T07:27:31.778Z,13.82
2017-09-28T07:29:59.222Z,13.98
2017-09-28T07:32:26.695Z,14.01
2017-09-28T07:34:54.143Z,14.16
2017-09-28T07:37:21.617Z,14.41
2017-09-28T07:39:49.057Z,14.37
2017-09-28T07:42:16.530Z,14.62
2017-09-28T07:44:43.987Z,14.67
2017-09-28T07:47:11.472Z,14.67
2017-09-28T07:49:38.924Z,14.68
2017-09-28T07:52:06.382Z,15.09
2017-09-28T07:54:33.841Z,14.89
2017-09-28T07:57:01.640Z,14.75
2017-09-28T07:59:34.816Z,14.83
2017-09-28T08:02:02.261Z,15.02
2017-09-28T08:04:29.782Z,15.03
2017-09-28T08:06:57.269Z,14.97
2017-09-28T08:09:24.814Z,15.03
2017-09-28T08:11:52.262Z,15.38
2017-09-28T08:14:19.754Z,15.33
2017-09-28T08:16:47.193Z,15.26
2017-09-28T08:19:14.741Z,15.25
2017-09-28T08:21:42.206Z,15.20
2017-09-28T08:24:10.835Z,15.34
2017-09-28T08:26:38.796Z,15.08
2017-09-28T08:29:06.293Z,15.09
2017-09-28T08:31:33.765Z,15.04
2017-09-28T08:34:01.206Z,15.28
2017-09-28T08:36:28.665Z,15.14
2017-09-28T08:38:56.137Z,15.46
2017-09-28T08:41:23.683Z,15.33
2017-09-28T08:43:51.331Z,15.35
2017-09-28T08:46:19.715Z,15.46
2017-09-28T08:48:47.174Z,15.72
2017-09-28T08:51:14.680Z,15.80
2017-09-28T08:53:42.190Z,16.00
2017-09-28T08:56:09.641Z,16.06
2017-09-28T08:58:37.198Z,15.95
2017-09-28T09:01:04.654Z,15.97
2017-09-28T09:03:32.140Z,15.92
2017-09-28T09:05:59.578Z,15.93
2017-09-28T09:08:27.070Z,15.85
2017-09-28T09:10:54.534Z,15.90
2017-09-28T09:13:22.056Z,15.90
2017-09-28T09:15:49.500Z,16.06
2017-09-28T09:18:16.975Z,16.48
2017-09-28T09:20:44.448Z,16.31
2017-09-28T09:23:11.882Z,16.41
2017-09-28T09:25:39.355Z,16.68
2017-09-28T09:28:06.809Z,16.62
2017-09-28T09:30:34.279Z,16.71
2017-09-28T09:33:01.752Z,16.44
2017-09-28T09:35:29.268Z,16.78
2017-09-28T09:37:56.712Z,16.93
2017-09-28T09:40:24.198Z,17.10
2017-09-28T09:42:51.661Z,16.95
2017-09-28T09:45:19.141Z,17.01
2017-09-28T09:47:46.588Z,16.88
2017-09-28T09:50:14.069Z,16.90
2017-09-28T09:52:41.514Z,17.23
2017-09-28T09:55:09.010Z,17.39
2017-09-28T09:57:36.580Z,17.53
2017-09-28T10:00:04.532Z,17.55
2017-09-28T10:02:31.997Z,17.63
2017-09-28T10:04:59.448Z,17.77
2017-09-28T10:07:43.664Z,17.73
2017-09-28T10:10:14.246Z,17.88
2017-09-28T10:12:43.932Z,18.03
2017-09-28T10:15:16.780Z,18.33
2017-09-28T10:17:44.251Z,18.14
2017-09-28T10:20:11.701Z,18.18
2017-09-28T10:22:39.165Z,18.58
2017-09-28T10:25:06.617Z,18.09
2017-09-28T10:27:34.114Z,18.16
2017-09-28T10:30:01.710Z,18.43
2017-09-28T10:32:29.583Z,18.32
2017-09-28T10:34:57.614Z,18.28
2017-09-28T10:37:25.133Z,18.12
2017-09-28T10:39:52.668Z,17.91
2017-09-28T10:42:20.118Z,18.14
2017-09-28T10:44:47.600Z,18.18
2017-09-28T10:47:15.065Z,18.06
2017-09-28T10:49:42.533Z,18.30
2017-09-28T10:52:09.977Z,18.36
2017-09-28T10:54:37.452Z,18.40
2017-09-28T10:57:04.908Z,18.38
2017-09-28T10:59:32.386Z,18.38
2017-09-28T11:01:59.848Z,18.33
2017-09-28T11:04:27.365Z,18.46
2017-09-28T11:06:54.850Z,18.92
2017-09-28T11:09:22.424Z,19.28
2017-09-28T11:11:49.901Z,18.89
2017-09-28T11:14:17.416Z,19.18
2017-09-28T11:16:44.884Z,18.82
2017-09-28T11:19:12.448Z,18.78
2017-09-28T11:21:39.990Z,18.88
2017-09-28T11:24:07.438Z,19.08
2017-09-28T11:26:34.905Z,19.22
2017-09-28T11:29:02.818Z,19.13
2017-09-28T11:31:30.294Z,18.95
2017-09-28T11:33:57.742Z,19.16
2017-09-28T11:36:25.205Z,19.35
2017-09-28T11:38:52.663Z,19.61
2017-09-28T11:41:20.120Z,19.62
2017-09-28T11:43:47.612Z,19.76
2017-09-28T11:46:15.054Z,19.79
2017-09-28T11:48:42.518Z,19.63
2017-09-28T11:51:09.971Z,19.82
2017-09-28T11:53:37.444Z,20.09
2017-09-28T11:56:04.961Z,19.98
2017-09-28T11:58:32.430Z,20.18
2017-09-28T12:00:59.878Z,20.08
2017-09-28T12:03:27.363Z,20.09
2017-09-28T12:05:54.831Z,20.30
2017-09-28T12:08:22.297Z,20.62
2017-09-28T12:10:49.793Z,20.85
2017-09-28T12:13:17.266Z,20.38
2017-09-28T12:15:44.723Z,20.68
2017-09-28T12:18:12.225Z,20.42
2017-09-28T12:20:39.683Z,20.43
2017-09-28T12:23:07.176Z,20.61
2017-09-28T12:25:34.630Z,20.67
2017-09-28T12:28:02.125Z,20.83
2017-09-28T12:30:29.694Z,20.70
2017-09-28T12:32:57.133Z,20.82
2017-09-28T12:35:24.768Z,20.83
2017-09-28T12:37:52.268Z,21.40
2017-09-28T12:40:19.737Z,21.68
2017-09-28T12:42:47.182Z,21.64
2017-09-28T12:45:14.695Z,21.54
2017-09-28T12:47:43.164Z,21.30
2017-09-28T12:50:26.986Z,21.17
2017-09-28T12:52:54.452Z,20.89
2017-09-28T12:55:27.533Z,20.98
2017-09-28T12:57:55.078Z,20.99
2017-09-28T13:00:22.546Z,20.82
2017-09-28T13:02:50.074Z,21.15
2017-09-28T13:05:18.954Z,21.51
2017-09-28T13:07:46.423Z,21.13
2017-09-28T13:10:13.941Z,21.02
2017-09-28T13:12:41.444Z,21.10
2017-09-28T13:15:08.889Z,21.33
2017-09-28T13:17:36.449Z,21.10
2017-09-28T13:20:04.270Z,21.30
2017-09-28T13:22:31.787Z,21.38
2017-09-28T13:24:59.231Z,21.48
2017-09-28T13:27:26.714Z,21.58
2017-09-28T13:29:57.543Z,21.27
2017-09-28T13:32:25.091Z,21.48
2017-09-28T13:34:52.558Z,21.68
2017-09-28T13:37:20.029Z,21.71
2017-09-28T13:39:47.476Z,21.99
2017-09-28T13:42:15.029Z,21.85
2017-09-28T13:44:42.474Z,22.16
2017-09-28T13:47:09.946Z,22.03
2017-09-28T13:49:37.502Z,21.85
2017-09-28T13:52:04.980Z,22.06
2017-09-28T13:54:32.557Z,22.06
2017-09-28T13:57:00.120Z,22.39
2017-09-28T13:59:27.623Z,22.42
2017-09-28T14:01:55.102Z,22.11
2017-09-28T14:04:22.572Z,22.34
2017-09-28T14:06:50.082Z,22.20
2017-09-28T14:09:17.547Z,22.16
2017-09-28T14:11:44.996Z,22.36
2017-09-28T14:14:12.467Z,22.05
2017-09-28T14:16:40.026Z,22.22
2017-09-28T14:19:07.583Z,22.23
2017-09-28T14:21:35.029Z,22.30
2017-09-28T14:24:02.502Z,22.46
2017-09-28T14:26:29.954Z,22.21
2017-09-28T14:28:57.410Z,22.02
2017-09-28T14:31:24.880Z,22.24
2017-09-28T14:33:52.417Z,22.31
2017-09-28T14:36:19.912Z,22.40
2017-09-28T14:38:47.353Z,22.28
2017-09-28T14:41:14.838Z,22.46
2017-09-28T14:43:42.303Z,22.60
2017-09-28T14:46:09.797Z,22.36
2017-09-28T14:48:37.256Z,22.17
2017-09-28T14:51:04.707Z,22.16
2017-09-28T14:53:32.180Z,21.89
2017-09-28T14:55:59.643Z,21.92
2017-09-28T14:58:27.280Z,21.92
2017-09-28T15:00:54.648Z,21.79
2017-09-28T15:03:22.119Z,21.76
2017-09-28T15:05:49.565Z,21.64
2017-09-28T15:08:17.143Z,21.74
2017-09-28T15:10:44.632Z,21.61
2017-09-28T15:13:12.193Z,21.56
2017-09-28T15:15:39.690Z,21.53
2017-09-28T15:18:07.152Z,21.50
2017-09-28T15:20:34.710Z,21.46
2017-09-28T15:23:02.173Z,21.54
2017-09-28T15:25:29.638Z,21.53
2017-09-28T15:27:57.086Z,21.43
2017-09-28T15:30:24.554Z,21.31
2017-09-28T15:32:51.995Z,21.26
2017-09-28T15:35:19.477Z,21.23
2017-09-28T15:37:46.957Z,21.06
2017-09-28T15:40:14.413Z,21.10
2017-09-28T15:42:41.891Z,21.06
2017-09-28T15:45:09.342Z,20.87
2017-09-28T15:47:36.841Z,20.87
2017-09-28T15:50:04.766Z,20.85
2017-09-28T15:52:32.253Z,20.83
2017-09-28T15:54:59.702Z,20.70
2017-09-28T15:57:27.276Z,20.61
2017-09-28T15:59:54.727Z,20.58
2017-09-28T16:02:22.169Z,20.44
2017-09-28T16:04:49.660Z,20.42
2017-09-28T16:07:17.109Z,20.35
2017-09-28T16:09:44.642Z,20.29
2017-09-28T16:12:12.102Z,20.40
2017-09-28T16:14:39.586Z,20.41
2017-09-28T16:17:07.029Z,20.21
2017-09-28T16:19:34.497Z,20.23
2017-09-28T16:22:01.970Z,20.11
2017-09-28T16:24:29.485Z,20.13
2017-09-28T16:26:57.010Z,20.18
2017-09-28T16:29:24.506Z,20.08
2017-09-28T16:31:51.946Z,19.92
2017-09-28T16:34:19.505Z,19.82
2017-09-28T16:36:46.966Z,19.82
2017-09-28T16:39:14.402Z,19.77
2017-09-28T16:41:41.864Z,19.80
2017-09-28T16:44:09.346Z,19.76
2017-09-28T16:46:36.811Z,19.65
2017-09-28T16:49:04.263Z,19.82
2017-09-28T16:51:31.730Z,19.74
2017-09-28T16:53:59.178Z,19.62
2017-09-28T16:56:26.660Z,19.57
2017-09-28T16:58:54.249Z,19.50
2017-09-28T17:01:21.739Z,19.42
2017-09-28T17:03:49.181Z,19.37
2017-09-28T17:06:16.633Z,19.47
2017-09-28T17:08:44.121Z,19.40
2017-09-28T17:11:11.690Z,19.31
2017-09-28T17:13:39.154Z,19.36
2017-09-28T17:16:06.607Z,19.43
2017-09-28T17:18:34.107Z,19.56
2017-09-28T17:21:01.554Z,19.49
2017-09-28T17:23:29.022Z,19.62
2017-09-28T17:25:56.461Z,19.65
2017-09-28T17:28:24.073Z,19.58
2017-09-28T17:30:51.558Z,19.50
2017-09-28T17:33:19.045Z,19.56
2017-09-28T17:35:46.487Z,19.59
2017-09-28T17:38:14.002Z,19.64
2017-09-28T17:40:41.740Z,19.58
2017-09-28T17:43:09.222Z,19.63
2017-09-28T17:45:36.701Z,19.56
2017-09-28T17:48:04.150Z,19.40
2017-09-28T17:50:31.646Z,19.59
2017-09-28T17:52:59.106Z,19.32
2017-09-28T17:55:26.570Z,19.11
2017-09-28T17:57:54.047Z,19.23
2017-09-28T18:00:21.534Z,19.12
2017-09-28T18:02:49.002Z,19.21
2017-09-28T18:05:16.482Z,19.13
2017-09-28T18:07:43.954Z,19.08
2017-09-28T18:10:11.686Z,19.05
2017-09-28T18:12:39.218Z,19.20
2017-09-28T18:15:06.675Z,19.21
2017-09-28T18:17:34.171Z,19.23
2017-09-28T18:20:01.647Z,19.12
2017-09-28T18:22:29.120Z,19.20
2017-09-28T18:24:56.565Z,19.25
2017-09-28T18:27:24.030Z,19.25
2017-09-28T18:29:52.442Z,19.20
2017-09-28T18:32:19.919Z,19.19
2017-09-28T18:34:47.422Z,19.16
2017-09-28T18:37:14.889Z,19.15
2017-09-28T18:39:42.329Z,19.15
2017-09-28T18:42:09.778Z,19.09
2017-09-28T18:44:37.284Z,19.27
2017-09-28T18:47:04.726Z,19.16
2017-09-28T18:49:32.193Z,19.24
2017-09-28T18:51:59.637Z,19.16
2017-09-28T18:54:27.112Z,19.09
2017-09-28T18:56:54.557Z,19.02
2017-09-28T18:59:23.513Z,18.97
2017-09-28T19:01:50.960Z,18.79
2017-09-28T19:04:18.421Z,18.71
2017-09-28T19:06:45.914Z,18.72
2017-09-28T19:09:13.388Z,18.67
2017-09-28T19:11:40.847Z,18.57
2017-09-28T19:14:08.301Z,18.50
2017-09-28T19:16:35.762Z,18.11
2017-09-28T19:19:03.201Z,18.11
2017-09-28T19:21:30.679Z,18.09
2017-09-28T19:23:58.139Z,18.15
2017-09-28T19:26:25.713Z,18.21
2017-09-28T19:28:53.153Z,18.22
2017-09-28T19:31:20.633Z,18.18
2017-09-28T19:33:48.093Z,18.10
2017-09-28T19:36:15.586Z,18.18
2017-09-28T19:38:43.049Z,18.19
2017-09-28T19:41:10.497Z,18.14
2017-09-28T19:43:37.957Z,18.09
2017-09-28T19:46:05.397Z,18.11
2017-09-28T19:48:32.885Z,17.96
2017-09-28T19:51:00.333Z,17.75
2017-09-28T19:53:27.802Z,17.58
2017-09-28T19:55:55.264Z,17.65
2017-09-28T19:58:22.743Z,17.79
2017-09-28T20:00:50.296Z,17.84
2017-09-28T20:03:17.779Z,17.82
2017-09-28T20:05:45.237Z,17.85
2017-09-28T20:08:12.691Z,17.81
2017-09-28T20:10:40.159Z,17.79
2017-09-28T20:13:07.610Z,17.82
2017-09-28T20:15:35.078Z,17.71
2017-09-28T20:18:02.518Z,17.68
2017-09-28T20:20:29.981Z,17.56
2017-09-28T20:22:57.426Z,17.67
2017-09-28T20:25:24.898Z,17.53
2017-09-28T20:27:52.353Z,17.41
2017-09-28T20:30:19.810Z,17.39
2017-09-28T20:32:47.288Z,17.33
2017-09-28T20:35:14.749Z,17.17
2017-09-28T20:37:42.204Z,17.32
2017-09-28T20:40:09.676Z,17.27
2017-09-28T20:42:37.143Z,17.19
2017-09-28T20:45:04.589Z,17.25
2017-09-28T20:47:32.053Z,17.36
2017-09-28T20:49:59.503Z,17.38
2017-09-28T20:52:26.970Z,17.38
2017-09-28T20:54:54.424Z,17.44
2017-09-28T20:57:21.939Z,17.40
2017-09-28T20:59:49.405Z,17.33
2017-09-28T21:02:16.897Z,17.13
2017-09-28T21:04:44.441Z,17.23
2017-09-28T21:07:11.910Z,17.25
2017-09-28T21:09:39.445Z,17.21
2017-09-28T21:12:06.915Z,17.21
2017-09-28T21:14:34.396Z,17.13
2017-09-28T21:17:01.893Z,17.05
2017-09-28T21:19:29.374Z,17.10
2017-09-28T21:21:56.819Z,16.98
2017-09-28T21:24:24.287Z,16.86
2017-09-28T21:26:51.738Z,16.71
2017-09-28T21:29:19.205Z,16.56
2017-09-28T21:31:46.647Z,16.70
2017-09-28T21:34:14.157Z,16.73
2017-09-28T21:36:41.607Z,16.75
2017-09-28T21:39:09.124Z,16.64
2017-09-28T21:41:36.585Z,16.52
2017-09-28T21:44:04.038Z,16.57
2017-09-28T21:46:31.501Z,16.53
2017-09-28T21:48:58.966Z,16.53
2017-09-28T21:51:26.440Z,16.47
2017-09-28T21:53:53.882Z,16.56
2017-09-28T21:56:21.372Z,16.44
2017-09-28T21:58:49.363Z,16.54
2017-09-28T22:01:17.071Z,16.56
2017-09-28T22:03:44.565Z,16.55
2017-09-28T22:06:12.035Z,16.60
2017-09-28T22:08:39.492Z,16.67
2017-09-28T22:11:06.958Z,16.72
2017-09-28T22:13:34.440Z,16.73
2017-09-28T22:16:01.912Z,16.69
2017-09-28T22:18:29.683Z,16.83
2017-09-28T22:20:57.137Z,16.85
2017-09-28T22:23:24.606Z,16.87
2017-09-28T22:25:52.045Z,16.94
2017-09-28T22:28:19.510Z,16.87
2017-09-28T22:30:46.959Z,16.90
2017-09-28T22:33:14.433Z,16.87
2017-09-28T22:35:41.885Z,16.80
2017-09-28T22:38:09.350Z,16.79
2017-09-28T22:40:36.832Z,16.80
2017-09-28T22:43:04.343Z,16.82
2017-09-28T22:45:31.800Z,16.81
2017-09-28T22:47:59.270Z,16.89
2017-09-28T22:50:26.768Z,16.73
2017-09-28T22:52:54.213Z,16.79
2017-09-28T22:55:21.679Z,16.84
2017-09-28T22:57:49.133Z,16.92
2017-09-28T23:00:16.622Z,16.85
2017-09-28T23:02:44.093Z,16.94
2017-09-28T23:05:11.566Z,16.97
2017-09-28T23:07:39.113Z,16.89
2017-09-28T23:10:06.577Z,16.86
2017-09-28T23:12:34.036Z,16.82
2017-09-28T23:15:01.512Z,16.80
2017-09-28T23:17:28.953Z,16.86
2017-09-28T23:19:56.506Z,16.82
2017-09-28T23:22:23.954Z,16.83
2017-09-28T23:24:51.524Z,16.84
2017-09-28T23:27:18.985Z,16.72
2017-09-28T23:29:46.468Z,16.73
2017-09-28T23:32:13.915Z,16.95
2017-09-28T23:34:41.379Z,16.80
2017-09-28T23:37:08.825Z,16.90
2017-09-28T23:39:36.326Z,16.78
2017-09-28T23:42:03.765Z,16.81
2017-09-28T23:44:31.222Z,16.78
2017-09-28T23:46:58.717Z,16.72
2017-09-28T23:49:26.161Z,16.53
2017-09-28T23:51:53.635Z,16.75
2017-09-28T23:54:21.110Z,16.90
2017-09-28T23:56:48.569Z,16.92
2017-09-28T23:59:16.019Z,17.00
